Terminal Aerodrome Forecast
Issued by NWS

Home | Current Version | Previous Version | Text Only | Print | Product List | Glossary On
Versions: 1 2 3 4 5 6 7 8 9 10 11 12 13 14 15 16 17
000
FTUS43 KDLH 032342
TAFHYR
TAF
KHYR 032342Z 0400/0424 25005KT P6SM VCSH SCT050
      TEMPO 0400/0401 VRB10G20KT 4SM TSRA BR BKN025CB
     FM040300 00000KT 6SM HZ FEW050
      TEMPO 0408/0412 3/4SM BR SCT005
     FM041600 16005KT P6SM SCT050=

USA.gov is the U.S. government's official web portal to all federal, state and local government web resources and services.